Fort Pike — WAA9418 — position and weather

sailwx.info

Track history (hours):
 
Tides and Currents Weather Stations Pressure Air Temp Water Temp Dewpoint Dewpoint Depression Visibility Wind Speed Wind Dir Waves Ship Positions

Fort Pike

Owner: Salisbury Towing Corporation, Chesapeak, VA. More information available from US FCC via Universal Licensing System and Coast Guard Vessel Documentation Center.

Last reported at 2018-Jul-19 13:12 UTC. Time now 2018-Jul-19 19:26 UTC.
Position N 38°30' W 075°48'.

Length 18 m; draft 2.5 m.

Type: Tug. MMSI: 366948310.

Date/timePositionNaut miles runAvg speedWind from/ knotsBaromVisibWave heightAir tempDewpointWater temp
2018-Jul-19 13:12N 38°30' W 075°48'2 4.9
2018-Jul-19 12:53N 38°30' W 075°46'4 4.4
2018-Jul-19 12:05N 38°33' W 075°43'0 1.9
2018-Jul-19 11:59N 38°33' W 075°43'7 2.6
2018-Jul-19 09:29N 38°38' W 075°37'0 0.3
2018-Jul-19 08:25N 38°38' W 075°37'39 2.5
2018-Jul-18 16:18N 38°46' W 076°27'2 6.9
2018-Jul-18 16:00N 38°48' W 076°26'3 6.3
2018-Jul-18 15:31N 38°52' W 076°25'3 6.4
2018-Jul-18 15:01N 38°55' W 076°25'5 6.4
2018-Jul-18 14:17N 38°59' W 076°23'8 6.0
2018-Jul-18 13:00N 39°07' W 076°24'3 6.2
2018-Jul-18 12:30N 39°10' W 076°25'3 5.8
2018-Jul-18 12:01N 39°11' W 076°28'3 5.9
2018-Jul-18 11:30N 39°13' W 076°32'4 3.7
2018-Jul-18 10:30N 39°16' W 076°35'0 0.0
2018-Jul-18 10:01N 39°16' W 076°35'0 0.0
2018-Jul-18 09:30N 39°16' W 076°35'0 0.0
2018-Jul-18 09:00N 39°16' W 076°35'0 0.0
2018-Jul-18 08:31N 39°16' W 076°35'0 0.0
2018-Jul-18 08:01N 39°16' W 076°35'0 0.0
2018-Jul-18 07:31N 39°16' W 076°35'0 0.0
2018-Jul-18 07:01N 39°15' W 076°35'0 0.0
2018-Jul-18 06:31N 39°15' W 076°35'0 0.0
2018-Jul-18 06:01N 39°16' W 076°35'2 3.6
2018-Jul-18 05:30N 39°15' W 076°33'3 5.0
2018-Jul-18 05:00N 39°13' W 076°31'3 5.0
2018-Jul-18 04:30N 39°11' W 076°28'2 4.9
2018-Jul-18 04:00N 39°11' W 076°25'3 5.0
2018-Jul-18 03:25N 39°13' W 076°22'5 4.7
2018-Jul-18 02:28N 39°15' W 076°17'2 4.7
2018-Jul-18 02:00N 39°17' W 076°15'3 5.1
2018-Jul-18 01:26N 39°19' W 076°13'2 5.8
2018-Jul-18 01:01N 39°21' W 076°10'3 6.2
2018-Jul-18 00:30N 39°22' W 076°07'3 6.4
2018-Jul-18 00:00N 39°24' W 076°03'3 5.7
2018-Jul-17 23:31N 39°27' W 076°02'3 5.8
2018-Jul-17 23:01N 39°29' W 076°05'3 6.0
2018-Jul-17 22:31N 39°32' W 076°05'2 4.9
2018-Jul-17 22:00N 39°34' W 076°06'0 0.5
2018-Jul-17 21:30N 39°34' W 076°06'0 0.0
2018-Jul-17 21:00N 39°34' W 076°06'0 0.0
2018-Jul-17 20:29N 39°34' W 076°06'0 0.4
2018-Jul-17 20:00N 39°34' W 076°06'0 0.5
2018-Jul-17 19:29N 39°34' W 076°06'3 6.5
2018-Jul-17 19:01N 39°31' W 076°05'3 6.0
2018-Jul-17 18:31N 39°28' W 076°03'31 7.5
2018-Jul-17 14:21N 39°01' W 076°22'3 8.6
2018-Jul-17 14:00N 38°58' W 076°23'4 8.7
2018-Jul-17 13:31N 38°54' W 076°24'6 2.9
2018-Jul-17 11:29N 38°48' W 076°22'1 1.0
2018-Jul-17 10:44N 38°48' W 076°21'1 2.8
2018-Jul-17 10:28N 38°49' W 076°21'4 0.4
2018-Jul-17 00:34N 38°46' W 076°25'0 5.5
2018-Jul-17 00:30N 38°46' W 076°25'6 5.5
2018-Jul-16 23:28N 38°52' W 076°25'3 5.6
2018-Jul-16 23:00N 38°55' W 076°24'5 5.9
2018-Jul-16 22:11N 38°59' W 076°23'22 6.9
2018-Jul-16 18:58N 39°20' W 076°12'4 7.5
2018-Jul-16 18:28N 39°22' W 076°08'3 7.1
2018-Jul-16 18:00N 39°24' W 076°04'3 6.0
2018-Jul-16 17:31N 39°26' W 076°02'3 5.8
2018-Jul-16 17:00N 39°29' W 076°04'3 5.1
2018-Jul-16 16:30N 39°31' W 076°05'3 5.5
2018-Jul-16 16:00N 39°34' W 076°06'1 1.1
2018-Jul-16 15:30N 39°34' W 076°06'0 0.4
2018-Jul-16 15:00N 39°34' W 076°06'0 0.0
2018-Jul-16 14:30N 39°34' W 076°06'0 0.0
2018-Jul-16 14:00N 39°34' W 076°06'0 0.0
2018-Jul-16 13:30N 39°34' W 076°06'0 0.0
2018-Jul-16 13:00N 39°34' W 076°06'0 0.0
2018-Jul-16 12:29N 39°34' W 076°06'0 0.0
2018-Jul-16 12:00N 39°34' W 076°06'0 0.5
2018-Jul-16 11:29N 39°34' W 076°06'0 0.1
2018-Jul-16 11:00N 39°34' W 076°06'0 0.0
2018-Jul-16 10:31N 39°34' W 076°06'0 0.0
2018-Jul-16 10:01N 39°34' W 076°06'0 0.0
2018-Jul-16 09:30N 39°34' W 076°06'0 0.0
2018-Jul-16 09:00N 39°34' W 076°06'0 0.0
2018-Jul-16 08:30N 39°34' W 076°06'0 0.0
2018-Jul-16 08:00N 39°34' W 076°06'0 0.0
2018-Jul-16 07:30N 39°34' W 076°06'0 0.0
2018-Jul-16 07:00N 39°34' W 076°06'0 0.0
2018-Jul-16 06:30N 39°34' W 076°06'0 0.0
2018-Jul-16 06:00N 39°34' W 076°06'0 0.0
2018-Jul-16 05:30N 39°34' W 076°06'0 0.0
2018-Jul-16 05:00N 39°34' W 076°06'0 0.0
2018-Jul-16 04:30N 39°34' W 076°06'0 0.0
2018-Jul-16 04:00N 39°34' W 076°06'0 0.0
2018-Jul-16 03:30N 39°34' W 076°06'0 0.0
2018-Jul-16 03:01N 39°34' W 076°06'0 0.0
2018-Jul-16 02:31N 39°34' W 076°06'0 0.0
2018-Jul-16 01:59N 39°34' W 076°06'0 0.0
2018-Jul-16 01:30N 39°34' W 076°06'0 0.0
2018-Jul-16 01:00N 39°34' W 076°06'0 0.0
2018-Jul-16 00:30N 39°34' W 076°06'0 0.0
2018-Jul-16 00:00N 39°34' W 076°06'0 0.0
2018-Jul-15 23:30N 39°34' W 076°06'0 0.0
2018-Jul-15 23:00N 39°34' W 076°06'0 0.0
2018-Jul-15 22:31N 39°34' W 076°06'0 0.0
2018-Jul-15 21:59N 39°34' W 076°06'0 0.0
2018-Jul-15 21:27N 39°34' W 076°06'0 0.0
2018-Jul-15 20:58N 39°34' W 076°06'0 0.0
2018-Jul-15 20:30N 39°34' W 076°06'0 0.0
2018-Jul-15 20:00N 39°34' W 076°06'0 0.0
2018-Jul-15 19:29N 39°34' W 076°06'0 0.0
2018-Jul-15 18:59N 39°34' W 076°06'0 0.0
2018-Jul-15 18:30N 39°34' W 076°06'0 0.0
2018-Jul-15 18:01N 39°34' W 076°06'0 0.0
2018-Jul-15 17:30N 39°34' W 076°06'0 0.0
2018-Jul-15 17:00N 39°34' W 076°06'0 0.0
2018-Jul-15 16:26N 39°34' W 076°06'0 0.0
2018-Jul-15 16:00N 39°34' W 076°06'0 0.0
2018-Jul-15 15:30N 39°34' W 076°06'0 0.0
2018-Jul-15 14:57N 39°34' W 076°06'0 0.7
2018-Jul-15 14:30N 39°34' W 076°06'4 6.7
2018-Jul-15 13:52N 39°30' W 076°05'2 6.6
2018-Jul-15 13:30N 39°28' W 076°03'4 6.8
2018-Jul-15 12:56N 39°24' W 076°03'5 7.9
2018-Jul-15 12:17N 39°22' W 076°09'2 8.1
2018-Jul-15 12:00N 39°20' W 076°11'7 7.8
2018-Jul-15 11:04N 39°13' W 076°15'2 7.5
2018-Jul-15 10:51N 39°12' W 076°16'5 7.4
2018-Jul-15 10:14N 39°08' W 076°20'3 7.4
2018-Jul-15 09:50N 39°06' W 076°21'3 7.6
2018-Jul-15 09:30N 39°03' W 076°22'4 7.8
2018-Jul-15 09:00N 38°59' W 076°23'4 7.5
2018-Jul-15 08:31N 38°56' W 076°24'4 7.5
2018-Jul-15 08:01N 38°52' W 076°25'4 7.4
2018-Jul-15 07:30N 38°48' W 076°26'71 4.0
2018-Jul-14 13:45N 37°43' W 075°49'4 5.6
2018-Jul-14 13:01N 37°47' W 075°51'0 8.5
2018-Jul-14 13:00N 37°48' W 075°51'4 8.0
2018-Jul-14 12:30N 37°51' W 075°50'3 6.6
2018-Jul-14 12:00N 37°54' W 075°47'3 6.2
2018-Jul-14 11:30N 37°56' W 075°44'1 1.4
2018-Jul-14 10:57N 37°57' W 075°44'0 0.0
2018-Jul-14 10:30N 37°57' W 075°44'0 0.0
2018-Jul-14 09:54N 37°57' W 075°44'0 0.0
2018-Jul-14 09:30N 37°57' W 075°44'0 0.0
2018-Jul-14 09:00N 37°57' W 075°44'0 0.0
2018-Jul-14 08:30N 37°57' W 075°44'0 0.0
2018-Jul-14 08:00N 37°57' W 075°44'0 0.0
2018-Jul-14 07:30N 37°57' W 075°44'0 0.1
2018-Jul-14 06:59N 37°57' W 075°44'0 0.0
2018-Jul-14 06:28N 37°57' W 075°44'0 0.0
2018-Jul-14 06:00N 37°57' W 075°44'0 0.0
2018-Jul-14 05:30N 37°57' W 075°44'0 0.0
2018-Jul-14 04:59N 37°57' W 075°44'0 0.1
2018-Jul-14 04:30N 37°57' W 075°44'0 0.1
2018-Jul-14 04:00N 37°57' W 075°44'0 0.0
2018-Jul-14 03:30N 37°57' W 075°44'0 0.0
2018-Jul-14 02:57N 37°57' W 075°44'0 0.0
2018-Jul-14 02:19N 37°57' W 075°44'8 0.6
2018-Jul-13 11:49N 38°04' W 075°37'2 0.3
2018-Jul-13 06:28N 38°03' W 075°39'1 2.8
2018-Jul-13 06:00N 38°02' W 075°39'2 3.6
2018-Jul-13 05:30N 38°00' W 075°37'2 3.4
2018-Jul-13 04:58N 37°59' W 075°38'2 3.8
2018-Jul-13 04:30N 37°58' W 075°40'2 3.3
2018-Jul-13 04:00N 37°58' W 075°42'1 1.7
2018-Jul-13 03:11N 37°57' W 075°44'0 0.1
2018-Jul-13 03:00N 37°57' W 075°44'0 0.0
2018-Jul-13 02:30N 37°57' W 075°44'0 0.0
2018-Jul-13 02:00N 37°57' W 075°44'0 0.0
2018-Jul-13 01:25N 37°57' W 075°44'0 0.0
2018-Jul-13 01:00N 37°57' W 075°44'0 0.0
2018-Jul-13 00:30N 37°57' W 075°44'2 2.4
2018-Jul-12 23:41N 37°55' W 075°45'61 4.4
2018-Jul-12 09:58N 38°47' W 076°27'3 6.0
2018-Jul-12 09:27N 38°50' W 076°26'3 5.8
2018-Jul-12 09:00N 38°52' W 076°25'3 5.7
2018-Jul-12 08:26N 38°56' W 076°24'4 5.7
2018-Jul-12 07:48N 38°59' W 076°23'8 5.6
2018-Jul-12 06:25N 39°06' W 076°20'4 6.3
2018-Jul-12 05:48N 39°10' W 076°18'5 7.2
2018-Jul-12 05:06N 39°14' W 076°14'1 7.2
2018-Jul-12 04:57N 39°15' W 076°14'4 7.8
2018-Jul-12 04:30N 39°19' W 076°13'4 8.1
2018-Jul-12 04:00N 39°21' W 076°09'4 8.0
2018-Jul-12 03:30N 39°23' W 076°05'3 6.4
2018-Jul-12 03:00N 39°26' W 076°02'3 5.4
2018-Jul-12 02:30N 39°28' W 076°03'2 4.9
2018-Jul-12 02:00N 39°30' W 076°05'3 5.4
2018-Jul-12 01:30N 39°33' W 076°05'2 3.4
2018-Jul-12 01:00N 39°34' W 076°06'0 0.1
2018-Jul-12 00:30N 39°34' W 076°06'0 0.0
2018-Jul-12 00:01N 39°34' W 076°06'0 0.0
2018-Jul-11 23:29N 39°34' W 076°06'0 0.1
2018-Jul-11 23:00N 39°34' W 076°06'3 6.6
2018-Jul-11 22:30N 39°31' W 076°05'3 6.8
2018-Jul-11 22:01N 39°28' W 076°03'4 7.3
2018-Jul-11 21:26N 39°24' W 076°03'26 7.4
2018-Jul-11 17:53N 39°02' W 076°22'3 7.6
2018-Jul-11 17:30N 38°59' W 076°23'3 7.0
2018-Jul-11 17:01N 38°56' W 076°24'4 7.1
2018-Jul-11 16:31N 38°52' W 076°25'4 7.2
2018-Jul-11 16:00N 38°49' W 076°26'38 6.5
2018-Jul-11 10:10N 38°12' W 076°12'1 7.3
2018-Jul-11 09:58N 38°12' W 076°10'24 5.5
2018-Jul-11 05:32N 37°50' W 075°57'0 8.2
2018-Jul-11 05:30N 37°50' W 075°57'4 7.7
2018-Jul-11 05:00N 37°46' W 075°57'3 5.2
2018-Jul-11 04:30N 37°45' W 075°54'4 7.3
2018-Jul-11 04:00N 37°48' W 075°51'4 7.2
2018-Jul-11 03:30N 37°51' W 075°49'16 0.4
2018-Jul-09 13:18N 38°04' W 075°37'  
Track history (hours):
 
Tides and Currents Weather Stations Pressure Air Temp Water Temp Dewpoint Dewpoint Depression Visibility Wind Speed Wind Dir Waves Ship Positions

Fort Pike

Owner: Salisbury Towing Corporation, Chesapeak, VA. More information available from US FCC via Universal Licensing System and Coast Guard Vessel Documentation Center.

Last reported at 2018-Jul-19 13:12 UTC. Time now 2018-Jul-19 19:26 UTC.
Position N 38°30' W 075°48'.

Length 18 m; draft 2.5 m.

Type: Tug. MMSI: 366948310.

Date/timePositionNaut miles runAvg speedWind from/ knotsBaromVisibWave heightAir tempDewpointWater temp
2018-Jul-19 13:12N 38°30' W 075°48'2 4.9
2018-Jul-19 12:53N 38°30' W 075°46'4 4.4
2018-Jul-19 12:05N 38°33' W 075°43'0 1.9
2018-Jul-19 11:59N 38°33' W 075°43'7 2.6
2018-Jul-19 09:29N 38°38' W 075°37'0 0.3
2018-Jul-19 08:25N 38°38' W 075°37'39 2.5
2018-Jul-18 16:18N 38°46' W 076°27'2 6.9
2018-Jul-18 16:00N 38°48' W 076°26'3 6.3
2018-Jul-18 15:31N 38°52' W 076°25'3 6.4
2018-Jul-18 15:01N 38°55' W 076°25'5 6.4
2018-Jul-18 14:17N 38°59' W 076°23'8 6.0
2018-Jul-18 13:00N 39°07' W 076°24'3 6.2
2018-Jul-18 12:30N 39°10' W 076°25'3 5.8
2018-Jul-18 12:01N 39°11' W 076°28'3 5.9
2018-Jul-18 11:30N 39°13' W 076°32'4 3.7
2018-Jul-18 10:30N 39°16' W 076°35'0 0.0
2018-Jul-18 10:01N 39°16' W 076°35'0 0.0
2018-Jul-18 09:30N 39°16' W 076°35'0 0.0
2018-Jul-18 09:00N 39°16' W 076°35'0 0.0
2018-Jul-18 08:31N 39°16' W 076°35'0 0.0
2018-Jul-18 08:01N 39°16' W 076°35'0 0.0
2018-Jul-18 07:31N 39°16' W 076°35'0 0.0
2018-Jul-18 07:01N 39°15' W 076°35'0 0.0
2018-Jul-18 06:31N 39°15' W 076°35'0 0.0
2018-Jul-18 06:01N 39°16' W 076°35'2 3.6
2018-Jul-18 05:30N 39°15' W 076°33'3 5.0
2018-Jul-18 05:00N 39°13' W 076°31'3 5.0
2018-Jul-18 04:30N 39°11' W 076°28'2 4.9
2018-Jul-18 04:00N 39°11' W 076°25'3 5.0
2018-Jul-18 03:25N 39°13' W 076°22'5 4.7
2018-Jul-18 02:28N 39°15' W 076°17'2 4.7
2018-Jul-18 02:00N 39°17' W 076°15'3 5.1
2018-Jul-18 01:26N 39°19' W 076°13'2 5.8
2018-Jul-18 01:01N 39°21' W 076°10'3 6.2
2018-Jul-18 00:30N 39°22' W 076°07'3 6.4
2018-Jul-18 00:00N 39°24' W 076°03'3 5.7
2018-Jul-17 23:31N 39°27' W 076°02'3 5.8
2018-Jul-17 23:01N 39°29' W 076°05'3 6.0
2018-Jul-17 22:31N 39°32' W 076°05'2 4.9
2018-Jul-17 22:00N 39°34' W 076°06'0 0.5
2018-Jul-17 21:30N 39°34' W 076°06'0 0.0
2018-Jul-17 21:00N 39°34' W 076°06'0 0.0
2018-Jul-17 20:29N 39°34' W 076°06'0 0.4
2018-Jul-17 20:00N 39°34' W 076°06'0 0.5
2018-Jul-17 19:29N 39°34' W 076°06'3 6.5
2018-Jul-17 19:01N 39°31' W 076°05'3 6.0
2018-Jul-17 18:31N 39°28' W 076°03'31 7.5
2018-Jul-17 14:21N 39°01' W 076°22'3 8.6
2018-Jul-17 14:00N 38°58' W 076°23'4 8.7
2018-Jul-17 13:31N 38°54' W 076°24'6 2.9
2018-Jul-17 11:29N 38°48' W 076°22'1 1.0
2018-Jul-17 10:44N 38°48' W 076°21'1 2.8
2018-Jul-17 10:28N 38°49' W 076°21'4 0.4
2018-Jul-17 00:34N 38°46' W 076°25'0 5.5
2018-Jul-17 00:30N 38°46' W 076°25'6 5.5
2018-Jul-16 23:28N 38°52' W 076°25'3 5.6
2018-Jul-16 23:00N 38°55' W 076°24'5 5.9
2018-Jul-16 22:11N 38°59' W 076°23'22 6.9
2018-Jul-16 18:58N 39°20' W 076°12'4 7.5
2018-Jul-16 18:28N 39°22' W 076°08'3 7.1
2018-Jul-16 18:00N 39°24' W 076°04'3 6.0
2018-Jul-16 17:31N 39°26' W 076°02'3 5.8
2018-Jul-16 17:00N 39°29' W 076°04'3 5.1
2018-Jul-16 16:30N 39°31' W 076°05'3 5.5
2018-Jul-16 16:00N 39°34' W 076°06'1 1.1
2018-Jul-16 15:30N 39°34' W 076°06'0 0.4
2018-Jul-16 15:00N 39°34' W 076°06'0 0.0
2018-Jul-16 14:30N 39°34' W 076°06'0 0.0
2018-Jul-16 14:00N 39°34' W 076°06'0 0.0
2018-Jul-16 13:30N 39°34' W 076°06'0 0.0
2018-Jul-16 13:00N 39°34' W 076°06'0 0.0
2018-Jul-16 12:29N 39°34' W 076°06'0 0.0
2018-Jul-16 12:00N 39°34' W 076°06'0 0.5
2018-Jul-16 11:29N 39°34' W 076°06'0 0.1
2018-Jul-16 11:00N 39°34' W 076°06'0 0.0
2018-Jul-16 10:31N 39°34' W 076°06'0 0.0
2018-Jul-16 10:01N 39°34' W 076°06'0 0.0
2018-Jul-16 09:30N 39°34' W 076°06'0 0.0
2018-Jul-16 09:00N 39°34' W 076°06'0 0.0
2018-Jul-16 08:30N 39°34' W 076°06'0 0.0
2018-Jul-16 08:00N 39°34' W 076°06'0 0.0
2018-Jul-16 07:30N 39°34' W 076°06'0 0.0
2018-Jul-16 07:00N 39°34' W 076°06'0 0.0
2018-Jul-16 06:30N 39°34' W 076°06'0 0.0
2018-Jul-16 06:00N 39°34' W 076°06'0 0.0
2018-Jul-16 05:30N 39°34' W 076°06'0 0.0
2018-Jul-16 05:00N 39°34' W 076°06'0 0.0
2018-Jul-16 04:30N 39°34' W 076°06'0 0.0
2018-Jul-16 04:00N 39°34' W 076°06'0 0.0
2018-Jul-16 03:30N 39°34' W 076°06'0 0.0
2018-Jul-16 03:01N 39°34' W 076°06'0 0.0
2018-Jul-16 02:31N 39°34' W 076°06'0 0.0
2018-Jul-16 01:59N 39°34' W 076°06'0 0.0
2018-Jul-16 01:30N 39°34' W 076°06'0 0.0
2018-Jul-16 01:00N 39°34' W 076°06'0 0.0
2018-Jul-16 00:30N 39°34' W 076°06'0 0.0
2018-Jul-16 00:00N 39°34' W 076°06'0 0.0
2018-Jul-15 23:30N 39°34' W 076°06'0 0.0
2018-Jul-15 23:00N 39°34' W 076°06'0 0.0
2018-Jul-15 22:31N 39°34' W 076°06'0 0.0
2018-Jul-15 21:59N 39°34' W 076°06'0 0.0
2018-Jul-15 21:27N 39°34' W 076°06'0 0.0
2018-Jul-15 20:58N 39°34' W 076°06'0 0.0
2018-Jul-15 20:30N 39°34' W 076°06'0 0.0
2018-Jul-15 20:00N 39°34' W 076°06'0 0.0
2018-Jul-15 19:29N 39°34' W 076°06'0 0.0
2018-Jul-15 18:59N 39°34' W 076°06'0 0.0
2018-Jul-15 18:30N 39°34' W 076°06'0 0.0
2018-Jul-15 18:01N 39°34' W 076°06'0 0.0
2018-Jul-15 17:30N 39°34' W 076°06'0 0.0
2018-Jul-15 17:00N 39°34' W 076°06'0 0.0
2018-Jul-15 16:26N 39°34' W 076°06'0 0.0
2018-Jul-15 16:00N 39°34' W 076°06'0 0.0
2018-Jul-15 15:30N 39°34' W 076°06'0 0.0
2018-Jul-15 14:57N 39°34' W 076°06'0 0.7
2018-Jul-15 14:30N 39°34' W 076°06'4 6.7
2018-Jul-15 13:52N 39°30' W 076°05'2 6.6
2018-Jul-15 13:30N 39°28' W 076°03'4 6.8
2018-Jul-15 12:56N 39°24' W 076°03'5 7.9
2018-Jul-15 12:17N 39°22' W 076°09'2 8.1
2018-Jul-15 12:00N 39°20' W 076°11'7 7.8
2018-Jul-15 11:04N 39°13' W 076°15'2 7.5
2018-Jul-15 10:51N 39°12' W 076°16'5 7.4
2018-Jul-15 10:14N 39°08' W 076°20'3 7.4
2018-Jul-15 09:50N 39°06' W 076°21'3 7.6
2018-Jul-15 09:30N 39°03' W 076°22'4 7.8
2018-Jul-15 09:00N 38°59' W 076°23'4 7.5
2018-Jul-15 08:31N 38°56' W 076°24'4 7.5
2018-Jul-15 08:01N 38°52' W 076°25'4 7.4
2018-Jul-15 07:30N 38°48' W 076°26'71 4.0
2018-Jul-14 13:45N 37°43' W 075°49'4 5.6
2018-Jul-14 13:01N 37°47' W 075°51'0 8.5
2018-Jul-14 13:00N 37°48' W 075°51'4 8.0
2018-Jul-14 12:30N 37°51' W 075°50'3 6.6
2018-Jul-14 12:00N 37°54' W 075°47'3 6.2
2018-Jul-14 11:30N 37°56' W 075°44'1 1.4
2018-Jul-14 10:57N 37°57' W 075°44'0 0.0
2018-Jul-14 10:30N 37°57' W 075°44'0 0.0
2018-Jul-14 09:54N 37°57' W 075°44'0 0.0
2018-Jul-14 09:30N 37°57' W 075°44'0 0.0
2018-Jul-14 09:00N 37°57' W 075°44'0 0.0
2018-Jul-14 08:30N 37°57' W 075°44'0 0.0
2018-Jul-14 08:00N 37°57' W 075°44'0 0.0
2018-Jul-14 07:30N 37°57' W 075°44'0 0.1
2018-Jul-14 06:59N 37°57' W 075°44'0 0.0
2018-Jul-14 06:28N 37°57' W 075°44'0 0.0
2018-Jul-14 06:00N 37°57' W 075°44'0 0.0
2018-Jul-14 05:30N 37°57' W 075°44'0 0.0
2018-Jul-14 04:59N 37°57' W 075°44'0 0.1
2018-Jul-14 04:30N 37°57' W 075°44'0 0.1
2018-Jul-14 04:00N 37°57' W 075°44'0 0.0
2018-Jul-14 03:30N 37°57' W 075°44'0 0.0
2018-Jul-14 02:57N 37°57' W 075°44'0 0.0
2018-Jul-14 02:19N 37°57' W 075°44'8 0.6
2018-Jul-13 11:49N 38°04' W 075°37'2 0.3
2018-Jul-13 06:28N 38°03' W 075°39'1 2.8
2018-Jul-13 06:00N 38°02' W 075°39'2 3.6
2018-Jul-13 05:30N 38°00' W 075°37'2 3.4
2018-Jul-13 04:58N 37°59' W 075°38'2 3.8
2018-Jul-13 04:30N 37°58' W 075°40'2 3.3
2018-Jul-13 04:00N 37°58' W 075°42'1 1.7
2018-Jul-13 03:11N 37°57' W 075°44'0 0.1
2018-Jul-13 03:00N 37°57' W 075°44'0 0.0
2018-Jul-13 02:30N 37°57' W 075°44'0 0.0
2018-Jul-13 02:00N 37°57' W 075°44'0 0.0
2018-Jul-13 01:25N 37°57' W 075°44'0 0.0
2018-Jul-13 01:00N 37°57' W 075°44'0 0.0
2018-Jul-13 00:30N 37°57' W 075°44'2 2.4
2018-Jul-12 23:41N 37°55' W 075°45'61 4.4
2018-Jul-12 09:58N 38°47' W 076°27'3 6.0
2018-Jul-12 09:27N 38°50' W 076°26'3 5.8
2018-Jul-12 09:00N 38°52' W 076°25'3 5.7
2018-Jul-12 08:26N 38°56' W 076°24'4 5.7
2018-Jul-12 07:48N 38°59' W 076°23'8 5.6
2018-Jul-12 06:25N 39°06' W 076°20'4 6.3
2018-Jul-12 05:48N 39°10' W 076°18'5 7.2
2018-Jul-12 05:06N 39°14' W 076°14'1 7.2
2018-Jul-12 04:57N 39°15' W 076°14'4 7.8
2018-Jul-12 04:30N 39°19' W 076°13'4 8.1
2018-Jul-12 04:00N 39°21' W 076°09'4 8.0
2018-Jul-12 03:30N 39°23' W 076°05'3 6.4
2018-Jul-12 03:00N 39°26' W 076°02'3 5.4
2018-Jul-12 02:30N 39°28' W 076°03'2 4.9
2018-Jul-12 02:00N 39°30' W 076°05'3 5.4
2018-Jul-12 01:30N 39°33' W 076°05'2 3.4
2018-Jul-12 01:00N 39°34' W 076°06'0 0.1
2018-Jul-12 00:30N 39°34' W 076°06'0 0.0
2018-Jul-12 00:01N 39°34' W 076°06'0 0.0
2018-Jul-11 23:29N 39°34' W 076°06'0 0.1
2018-Jul-11 23:00N 39°34' W 076°06'3 6.6
2018-Jul-11 22:30N 39°31' W 076°05'3 6.8
2018-Jul-11 22:01N 39°28' W 076°03'4 7.3
2018-Jul-11 21:26N 39°24' W 076°03'26 7.4
2018-Jul-11 17:53N 39°02' W 076°22'3 7.6
2018-Jul-11 17:30N 38°59' W 076°23'3 7.0
2018-Jul-11 17:01N 38°56' W 076°24'4 7.1
2018-Jul-11 16:31N 38°52' W 076°25'4 7.2
2018-Jul-11 16:00N 38°49' W 076°26'38 6.5
2018-Jul-11 10:10N 38°12' W 076°12'1 7.3
2018-Jul-11 09:58N 38°12' W 076°10'24 5.5
2018-Jul-11 05:32N 37°50' W 075°57'0 8.2
2018-Jul-11 05:30N 37°50' W 075°57'4 7.7
2018-Jul-11 05:00N 37°46' W 075°57'3 5.2
2018-Jul-11 04:30N 37°45' W 075°54'4 7.3
2018-Jul-11 04:00N 37°48' W 075°51'4 7.2
2018-Jul-11 03:30N 37°51' W 075°49'16 0.4
2018-Jul-09 13:18N 38°04' W 075°37'  

Dump ship's entire track history